createdAt,value
2019-01-21T00:01:33.050Z,94979.83
2019-01-21T00:04:02.624Z,94983.95
2019-01-21T00:06:32.131Z,94986.70
2019-01-21T00:09:01.659Z,94984.97
2019-01-21T00:11:31.194Z,94988.56
2019-01-21T00:14:02.298Z,94990.12
2019-01-21T00:16:32.140Z,94988.56
2019-01-21T00:19:01.672Z,94993.89
2019-01-21T00:21:31.525Z,94993.44
2019-01-21T00:24:01.636Z,94992.16
2019-01-21T00:26:31.587Z,94992.80
2019-01-21T00:29:01.124Z,94994.84
2019-01-21T00:31:30.660Z,94999.15
2019-01-21T00:34:00.221Z,94995.38
2019-01-21T00:36:29.727Z,94996.31
2019-01-21T00:39:00.018Z,95001.00
2019-01-21T00:41:29.657Z,94998.05
2019-01-21T00:43:59.153Z,94993.48
2019-01-21T00:46:28.739Z,94997.97
2019-01-21T00:48:58.245Z,94995.03
2019-01-21T00:51:28.401Z,94992.73
2019-01-21T00:53:57.954Z,94993.94
2019-01-21T00:56:27.502Z,94994.13
2019-01-21T00:58:56.986Z,94992.01
2019-01-21T01:01:26.508Z,94994.61
2019-01-21T01:03:56.837Z,94993.14
2019-01-21T01:06:26.349Z,94993.78
2019-01-21T01:08:55.919Z,94999.39
2019-01-21T01:11:25.447Z,95001.50
2019-01-21T01:13:54.974Z,95001.23
2019-01-21T01:16:25.244Z,95002.52
2019-01-21T01:18:54.770Z,94993.72
2019-01-21T01:21:24.327Z,94998.55
2019-01-21T01:23:53.828Z,94996.55
2019-01-21T01:26:23.368Z,95003.33
2019-01-21T01:28:53.715Z,95007.28
2019-01-21T01:31:23.241Z,95003.06
2019-01-21T01:33:52.771Z,95005.64
2019-01-21T01:36:22.292Z,95009.56
2019-01-21T01:38:51.793Z,95004.16
2019-01-21T01:41:22.268Z,94999.28
2019-01-21T01:43:51.792Z,95003.94
2019-01-21T01:46:21.402Z,95000.83
2019-01-21T01:48:50.917Z,94992.30
2019-01-21T01:51:20.448Z,94999.72
2019-01-21T01:53:50.732Z,94998.80
2019-01-21T01:56:20.309Z,95000.33
2019-01-21T01:58:49.878Z,95006.44
2019-01-21T02:01:19.459Z,95004.48
2019-01-21T02:03:48.949Z,94998.43
2019-01-21T02:06:19.274Z,95000.64
2019-01-21T02:08:48.803Z,94997.49
2019-01-21T02:11:18.318Z,94994.16
2019-01-21T02:13:47.841Z,94998.41
2019-01-21T02:16:17.561Z,95001.30
2019-01-21T02:18:47.656Z,95003.70
2019-01-21T02:21:57.398Z,94998.17
2019-01-21T02:24:41.238Z,94999.22
2019-01-21T02:27:13.783Z,94888.94
2019-01-21T02:30:05.225Z,95003.47
2019-01-21T02:32:47.975Z,95005.34
2019-01-21T02:35:27.922Z,95002.13
2019-01-21T02:38:10.636Z,94996.05
2019-01-21T02:40:47.555Z,94995.36
2019-01-21T02:43:30.828Z,95005.48
2019-01-21T02:46:46.974Z,94999.37
2019-01-21T02:49:55.761Z,95001.83
2019-01-21T02:52:38.580Z,95005.80
2019-01-21T02:55:32.895Z,95003.75
2019-01-21T02:58:35.479Z,95004.69
2019-01-21T03:01:18.558Z,95005.30
2019-01-21T03:03:52.815Z,95007.08
2019-01-21T03:06:38.517Z,95008.47
2019-01-21T03:09:33.122Z,95006.38
2019-01-21T03:12:15.901Z,95006.33
2019-01-21T03:15:01.951Z,95006.63
2019-01-21T03:17:50.221Z,95005.45
2019-01-21T03:21:04.629Z,95009.58
2019-01-21T03:23:48.660Z,95011.80
2019-01-21T03:26:43.521Z,95010.31
2019-01-21T03:29:32.685Z,95009.89
2019-01-21T03:32:29.154Z,95010.17
2019-01-21T03:35:40.579Z,95002.97
2019-01-21T03:38:20.154Z,95007.98
2019-01-21T03:41:03.234Z,94999.47
2019-01-21T03:43:53.621Z,95003.52
2019-01-21T03:46:52.594Z,95000.68
2019-01-21T03:49:45.834Z,95000.58
2019-01-21T03:52:49.239Z,94999.95
2019-01-21T03:55:19.373Z,95004.75
2019-01-21T03:58:27.541Z,95000.81
2019-01-21T04:01:18.904Z,94999.15
2019-01-21T04:04:16.895Z,94999.72
2019-01-21T04:06:54.145Z,94995.13
2019-01-21T04:09:42.951Z,94994.16
2019-01-21T04:12:38.348Z,94993.50
2019-01-21T04:15:27.566Z,94995.55
2019-01-21T04:18:31.912Z,94992.98
2019-01-21T04:21:41.688Z,94997.81
2019-01-21T04:24:53.132Z,95002.52
2019-01-21T04:27:39.183Z,94995.97
2019-01-21T04:30:31.089Z,94995.25
2019-01-21T04:33:36.706Z,95002.39
2019-01-21T04:36:46.498Z,95001.73
2019-01-21T04:39:26.429Z,94902.09
2019-01-21T04:42:06.357Z,95013.30
2019-01-21T04:44:57.507Z,95006.06
2019-01-21T04:47:57.853Z,95007.43
2019-01-21T04:51:03.546Z,95008.17
2019-01-21T04:53:52.456Z,95011.72
2019-01-21T04:57:03.459Z,95009.88
2019-01-21T04:59:55.404Z,95012.00
2019-01-21T05:02:38.151Z,95010.73
2019-01-21T05:05:40.500Z,95011.97
2019-01-21T05:08:50.483Z,95018.03
2019-01-21T05:11:24.745Z,95018.38
2019-01-21T05:14:19.980Z,95018.94
2019-01-21T05:17:11.790Z,95020.70
2019-01-21T05:20:21.746Z,95016.64
2019-01-21T05:23:49.294Z,95023.99
2019-01-21T05:27:10.713Z,95021.05
2019-01-21T05:29:44.908Z,95029.39
2019-01-21T05:32:48.433Z,95026.38
2019-01-21T05:35:25.848Z,95028.05
2019-01-21T05:38:17.825Z,95031.70
2019-01-21T05:41:06.201Z,95035.38
2019-01-21T05:44:14.139Z,95042.32
2019-01-21T05:47:13.624Z,95035.38
2019-01-21T05:50:08.455Z,95042.05
2019-01-21T05:53:13.769Z,95041.56
2019-01-21T05:56:19.172Z,95043.23
2019-01-21T05:59:14.335Z,95050.75
2019-01-21T06:02:23.867Z,95047.85
2019-01-21T06:05:12.895Z,95043.08
2019-01-21T06:08:34.360Z,95052.23
2019-01-21T06:11:44.086Z,95054.34
2019-01-21T06:14:44.794Z,95054.52
2019-01-21T06:18:12.343Z,95052.58
2019-01-21T06:21:19.648Z,95056.50
2019-01-21T06:24:47.171Z,95055.70
2019-01-21T06:27:33.456Z,95061.04
2019-01-21T06:30:24.393Z,95061.11
2019-01-21T06:33:24.866Z,95060.73
2019-01-21T06:35:59.050Z,95058.55
2019-01-21T06:38:49.429Z,95066.97
2019-01-21T06:41:38.063Z,95072.55
2019-01-21T06:44:33.181Z,95067.25
2019-01-21T06:47:30.592Z,95071.92
2019-01-21T06:50:13.603Z,95072.51
2019-01-21T06:53:12.961Z,95074.19
2019-01-21T06:56:10.784Z,95072.73
2019-01-21T06:59:25.080Z,95075.05
2019-01-21T07:02:23.107Z,95073.73
2019-01-21T07:05:09.362Z,95081.13
2019-01-21T07:08:18.476Z,95074.20
2019-01-21T07:11:10.250Z,95081.45
2019-01-21T07:13:59.142Z,95083.47
2019-01-21T07:16:36.281Z,95088.12
2019-01-21T07:19:33.545Z,95085.66
2019-01-21T07:22:13.599Z,95092.35
2019-01-21T07:25:41.137Z,95090.78
2019-01-21T07:28:29.983Z,95055.02
2019-01-21T07:31:24.836Z,95102.99
2019-01-21T07:34:13.415Z,95098.23
2019-01-21T07:37:12.862Z,95104.12
2019-01-21T07:40:01.299Z,95102.55
2019-01-21T07:43:08.107Z,95101.09
2019-01-21T07:45:58.423Z,95101.27
2019-01-21T07:48:51.630Z,95104.48
2019-01-21T07:51:37.523Z,95101.09
2019-01-21T07:54:31.026Z,95106.69
2019-01-21T07:57:33.648Z,95101.25
2019-01-21T08:00:37.480Z,95097.69
2019-01-21T08:03:44.568Z,95103.77
2019-01-21T08:06:27.264Z,95102.28
2019-01-21T08:09:07.516Z,95103.94
2019-01-21T08:12:03.746Z,95104.66
2019-01-21T08:14:52.760Z,95101.83
2019-01-21T08:17:46.009Z,95102.30
2019-01-21T08:20:23.181Z,95104.21
2019-01-21T08:23:09.358Z,95101.47
2019-01-21T08:26:04.108Z,95103.11
2019-01-21T08:28:46.783Z,95104.03
2019-01-21T08:31:32.821Z,95104.86
2019-01-21T08:34:35.456Z,95108.81
2019-01-21T08:37:43.941Z,95106.60
2019-01-21T08:40:40.274Z,95111.18
2019-01-21T08:43:29.261Z,95118.35
2019-01-21T08:46:24.302Z,95122.56
2019-01-21T08:49:13.364Z,95126.78
2019-01-21T08:52:16.786Z,95123.11
2019-01-21T08:55:28.421Z,95126.70
2019-01-21T08:58:36.989Z,95128.33
2019-01-21T09:01:26.017Z,95128.25
2019-01-21T09:04:02.889Z,95130.17
2019-01-21T09:06:48.894Z,95131.56
2019-01-21T09:09:28.745Z,95134.76
2019-01-21T09:12:14.780Z,95130.98
2019-01-21T09:15:06.823Z,95137.84
2019-01-21T09:17:55.736Z,95134.52
2019-01-21T09:20:56.179Z,95130.02
2019-01-21T09:23:39.033Z,95130.28
2019-01-21T09:26:21.909Z,95136.97
2019-01-21T09:29:05.025Z,95133.77
2019-01-21T09:31:54.260Z,95134.59
2019-01-21T09:34:50.646Z,95138.22
2019-01-21T09:37:45.025Z,95133.38
2019-01-21T09:40:30.793Z,95137.84
2019-01-21T09:43:13.911Z,95135.16
2019-01-21T09:46:16.255Z,95136.19
2019-01-21T09:48:44.162Z,95137.47
2019-01-21T09:51:15.081Z,95135.31
2019-01-21T09:53:47.820Z,95137.76
2019-01-21T09:56:18.292Z,95135.45
2019-01-21T09:58:49.254Z,95136.34
2019-01-21T10:01:19.895Z,95136.61
2019-01-21T10:03:50.473Z,95135.12
2019-01-21T10:06:24.011Z,95144.97
2019-01-21T10:09:24.916Z,95139.57
2019-01-21T10:12:38.355Z,95140.21
2019-01-21T10:15:12.526Z,95133.95
2019-01-21T10:17:46.699Z,95128.35
2019-01-21T10:21:15.078Z,95137.69
2019-01-21T10:23:58.214Z,95127.16
2019-01-21T10:26:53.284Z,95128.70
2019-01-21T10:29:36.239Z,95124.31
2019-01-21T10:32:26.690Z,95119.02
2019-01-21T10:35:24.710Z,95118.31
2019-01-21T10:38:17.624Z,95111.69
2019-01-21T10:41:00.565Z,95108.73
2019-01-21T10:44:19.627Z,95107.52
2019-01-21T10:47:08.434Z,95104.73
2019-01-21T10:49:57.552Z,95104.08
2019-01-21T10:52:50.288Z,95104.65
2019-01-21T10:55:55.570Z,95101.84
2019-01-21T10:58:53.120Z,95093.37
2019-01-21T11:01:56.276Z,95094.26
2019-01-21T11:04:58.316Z,94952.54
2019-01-21T11:08:00.586Z,95098.63
2019-01-21T11:10:40.265Z,95098.03
2019-01-21T11:13:33.561Z,95095.31
2019-01-21T11:16:39.269Z,95089.34
2019-01-21T11:19:30.977Z,95091.91
2019-01-21T11:22:05.150Z,95091.58
2019-01-21T11:24:51.037Z,95089.31
2019-01-21T11:27:30.999Z,95083.45
2019-01-21T11:30:33.633Z,95078.59
2019-01-21T11:33:28.036Z,95080.30
2019-01-21T11:36:24.739Z,95071.45
2019-01-21T11:39:13.857Z,95070.56
2019-01-21T11:42:14.280Z,95073.52
2019-01-21T11:45:41.833Z,95068.84
2019-01-21T11:48:39.643Z,95071.41
2019-01-21T11:51:42.075Z,95066.87
2019-01-21T11:54:38.488Z,95064.15
2019-01-21T11:57:49.901Z,95060.67
2019-01-21T12:00:24.195Z,95064.58
2019-01-21T12:03:23.878Z,95066.46
2019-01-21T12:05:57.248Z,95061.22
2019-01-21T12:08:55.266Z,95066.54
2019-01-21T12:11:44.355Z,95064.75
2019-01-21T12:14:54.152Z,95065.58
2019-01-21T12:17:53.504Z,95054.22
2019-01-21T12:20:27.752Z,95054.27
2019-01-21T12:23:19.507Z,95050.30
2019-01-21T12:25:56.262Z,95048.80
2019-01-21T12:28:48.567Z,95042.38
2019-01-21T12:31:43.262Z,95041.36
2019-01-21T12:34:35.097Z,95044.84
2019-01-21T12:37:09.293Z,95042.31
2019-01-21T12:39:46.108Z,95037.98
2019-01-21T12:42:23.012Z,95041.09
2019-01-21T12:45:21.156Z,95034.12
2019-01-21T12:48:09.878Z,95034.88
2019-01-21T12:51:12.129Z,95033.72
2019-01-21T12:54:39.677Z,95035.29
2019-01-21T12:57:46.714Z,95031.52
2019-01-21T13:00:29.315Z,95036.58
2019-01-21T13:03:20.574Z,95023.25
2019-01-21T13:06:00.590Z,95031.20
2019-01-21T13:08:55.464Z,95024.70
2019-01-21T13:11:35.248Z,95024.63
2019-01-21T13:14:31.509Z,95023.73
2019-01-21T13:17:05.741Z,95023.83
2019-01-21T13:20:00.269Z,95014.96
2019-01-21T13:22:51.604Z,95015.63
2019-01-21T13:25:56.342Z,95017.38
2019-01-21T13:28:42.517Z,95013.36
2019-01-21T13:31:28.585Z,95011.98
2019-01-21T13:34:44.600Z,95013.77
2019-01-21T13:37:54.389Z,95011.44
2019-01-21T13:41:10.379Z,95009.80
2019-01-21T13:44:08.389Z,95006.25
2019-01-21T13:46:59.927Z,95004.98
2019-01-21T13:49:51.801Z,95007.04
2019-01-21T13:52:37.410Z,95003.11
2019-01-21T13:55:29.461Z,95009.09
2019-01-21T13:58:18.405Z,95000.96
2019-01-21T14:01:10.282Z,95009.73
2019-01-21T14:04:06.039Z,95004.83
2019-01-21T14:06:58.264Z,95011.94
2019-01-21T14:10:05.256Z,95013.84
2019-01-21T14:12:57.226Z,95010.23
2019-01-21T14:15:36.478Z,95011.39
2019-01-21T14:18:27.553Z,95012.34
2019-01-21T14:21:22.353Z,95012.97
2019-01-21T14:24:17.512Z,95011.96
2019-01-21T14:27:00.262Z,95009.47
2019-01-21T14:29:55.022Z,95016.78
2019-01-21T14:32:47.319Z,95011.96
2019-01-21T14:35:29.759Z,95014.21
2019-01-21T14:38:09.656Z,95008.86
2019-01-21T14:41:10.707Z,95010.56
2019-01-21T14:44:21.774Z,95013.17
2019-01-21T14:47:04.784Z,95015.54
2019-01-21T14:49:50.986Z,95008.52
2019-01-21T14:52:33.836Z,95012.67
2019-01-21T14:55:28.853Z,95014.72
2019-01-21T14:58:05.973Z,95016.78
2019-01-21T15:00:48.579Z,95010.59
2019-01-21T15:03:58.395Z,95009.26
2019-01-21T15:07:04.315Z,94893.62
2019-01-21T15:10:17.096Z,95014.97
2019-01-21T15:13:05.761Z,95014.97
2019-01-21T15:15:51.484Z,95020.95
2019-01-21T15:18:46.386Z,95022.89
2019-01-21T15:21:35.110Z,95021.66
2019-01-21T15:24:23.392Z,95023.89
2019-01-21T15:27:00.139Z,95021.03
2019-01-21T15:29:40.063Z,95022.27
2019-01-21T15:32:25.963Z,95018.41
2019-01-21T15:35:20.495Z,95017.95
2019-01-21T15:38:36.238Z,95016.61
2019-01-21T15:41:32.727Z,95013.83
2019-01-21T15:44:09.733Z,95019.58
2019-01-21T15:46:52.795Z,95019.72
2019-01-21T15:49:35.932Z,95022.95
2019-01-21T15:52:24.886Z,95019.78
2019-01-21T15:55:25.611Z,95021.34
2019-01-21T15:58:08.460Z,95018.71
2019-01-21T16:00:57.153Z,95023.48
2019-01-21T16:04:01.336Z,95021.72
2019-01-21T16:06:59.952Z,95020.83
2019-01-21T16:09:36.717Z,95025.80
2019-01-21T16:12:28.538Z,95026.17
2019-01-21T16:15:40.289Z,95026.42
2019-01-21T16:18:29.280Z,95022.88
2019-01-21T16:21:39.661Z,95023.73
2019-01-21T16:24:28.520Z,95016.38
2019-01-21T16:27:10.918Z,95019.23
2019-01-21T16:29:53.887Z,95020.14
2019-01-21T16:32:25.948Z,95023.55
2019-01-21T16:35:21.048Z,95024.30
2019-01-21T16:38:00.820Z,95017.95
2019-01-21T16:41:02.485Z,95019.34
2019-01-21T16:43:44.658Z,95020.19
2019-01-21T16:46:14.181Z,95024.51
2019-01-21T16:48:43.788Z,95017.63
2019-01-21T16:51:19.999Z,95019.23
2019-01-21T16:53:44.625Z,95020.31
2019-01-21T16:56:14.300Z,95024.44
2019-01-21T16:58:44.951Z,95022.39
2019-01-21T17:01:14.450Z,95023.79
2019-01-21T17:03:44.077Z,95025.22
2019-01-21T17:06:13.808Z,95030.41
2019-01-21T17:08:43.309Z,95026.55
2019-01-21T17:11:13.227Z,95026.90
2019-01-21T17:13:42.821Z,95025.48
2019-01-21T17:16:12.320Z,95025.02
2019-01-21T17:18:41.944Z,95023.87
2019-01-21T17:21:11.525Z,95017.58
2019-01-21T17:23:41.739Z,95016.03
2019-01-21T17:26:11.283Z,95013.77
2019-01-21T17:28:40.989Z,95016.61
2019-01-21T17:31:10.550Z,95018.02
2019-01-21T17:33:40.081Z,95020.45
2019-01-21T17:36:29.575Z,95020.98
2019-01-21T17:38:59.125Z,94979.83
2019-01-21T17:41:28.793Z,95011.34
2019-01-21T17:43:58.336Z,95014.27
2019-01-21T17:46:27.892Z,95018.02
2019-01-21T17:49:16.772Z,95019.43
2019-01-21T17:52:05.613Z,94871.27
2019-01-21T17:54:46.187Z,95012.94
2019-01-21T17:57:35.026Z,95010.36
2019-01-21T18:00:08.036Z,95014.53
2019-01-21T18:02:37.575Z,95018.78
2019-01-21T18:05:08.166Z,95017.69
2019-01-21T18:07:37.665Z,95014.59
2019-01-21T18:10:11.951Z,95015.12
2019-01-21T18:12:41.619Z,95017.42
2019-01-21T18:15:13.245Z,95017.16
2019-01-21T18:18:02.136Z,95012.34
2019-01-21T18:20:32.690Z,95012.16
2019-01-21T18:23:02.337Z,95013.83
2019-01-21T18:25:33.059Z,95010.94
2019-01-21T18:28:02.629Z,95011.53
2019-01-21T18:30:32.327Z,95001.63
2019-01-21T18:33:01.892Z,95001.73
2019-01-21T18:35:31.496Z,94999.48
2019-01-21T18:38:02.532Z,94998.64
2019-01-21T18:40:32.044Z,94997.50
2019-01-21T18:43:01.625Z,94997.67
2019-01-21T18:45:31.654Z,94990.91
2019-01-21T18:48:01.165Z,94988.16
2019-01-21T18:50:30.701Z,94985.67
2019-01-21T18:53:00.781Z,94991.81
2019-01-21T18:55:30.323Z,94992.19
2019-01-21T18:57:59.926Z,95000.62
2019-01-21T19:00:29.560Z,95003.27
2019-01-21T19:02:59.137Z,95000.44
2019-01-21T19:05:29.188Z,94998.58
2019-01-21T19:07:58.743Z,94993.77
2019-01-21T19:10:28.326Z,94993.73
2019-01-21T19:12:57.798Z,94987.28
2019-01-21T19:15:30.761Z,94981.09
2019-01-21T19:18:00.261Z,94980.31
2019-01-21T19:20:30.085Z,94980.17
2019-01-21T19:22:59.683Z,94980.70
2019-01-21T19:25:40.212Z,94980.98
2019-01-21T19:28:41.588Z,94986.06
2019-01-21T19:31:11.167Z,94993.27
2019-01-21T19:33:40.703Z,94988.72
2019-01-21T19:36:10.237Z,94985.88
2019-01-21T19:38:39.730Z,94984.97
2019-01-21T19:41:09.338Z,94980.41
2019-01-21T19:43:38.831Z,94983.05
2019-01-21T19:46:08.415Z,94982.48
2019-01-21T19:48:37.988Z,94986.27
2019-01-21T19:51:07.576Z,94993.46
2019-01-21T19:53:37.063Z,94990.62
2019-01-21T19:56:06.864Z,94995.66
2019-01-21T19:58:36.367Z,94998.72
2019-01-21T20:01:05.990Z,94993.38
2019-01-21T20:03:36.192Z,94991.91
2019-01-21T20:06:25.521Z,94992.94
2019-01-21T20:09:26.963Z,94970.05
2019-01-21T20:11:56.570Z,94989.81
2019-01-21T20:14:45.428Z,94984.47
2019-01-21T20:17:16.211Z,94982.16
2019-01-21T20:19:45.847Z,94983.63
2019-01-21T20:22:15.398Z,94982.72
2019-01-21T20:24:44.901Z,94984.02
2019-01-21T20:27:14.402Z,94979.11
2019-01-21T20:29:45.309Z,94977.39
2019-01-21T20:32:14.950Z,94981.95
2019-01-21T20:34:44.510Z,94984.08
2019-01-21T20:37:14.058Z,94981.96
2019-01-21T20:39:43.626Z,94984.28
2019-01-21T20:42:13.978Z,94988.33
2019-01-21T20:44:43.534Z,94993.47
2019-01-21T20:47:13.067Z,94994.22
2019-01-21T20:49:42.572Z,94993.84
2019-01-21T20:52:31.459Z,94985.95
2019-01-21T20:55:20.642Z,94993.40
2019-01-21T20:57:50.261Z,94990.48
2019-01-21T21:00:26.059Z,94992.98
2019-01-21T21:02:56.614Z,94994.73
2019-01-21T21:05:26.226Z,94994.16
2019-01-21T21:07:55.905Z,94996.34
2019-01-21T21:10:25.612Z,95000.73
2019-01-21T21:12:55.277Z,95001.10
2019-01-21T21:15:28.876Z,94995.95
2019-01-21T21:17:58.374Z,95000.79
2019-01-21T21:20:27.966Z,94995.00
2019-01-21T21:22:57.617Z,94996.36
2019-01-21T21:28:47.279Z,94992.25
2019-01-21T21:31:16.825Z,94919.67
2019-01-21T21:33:46.418Z,94996.23
2019-01-21T21:36:15.967Z,94994.41
2019-01-21T21:38:47.088Z,94990.71
2019-01-21T21:41:16.662Z,94985.42
2019-01-21T21:43:46.166Z,94986.18
2019-01-21T21:46:15.743Z,94989.36
2019-01-21T21:48:45.274Z,94987.05
2019-01-21T21:51:15.836Z,94986.52
2019-01-21T21:53:45.329Z,94987.23
2019-01-21T21:56:14.881Z,94982.66
2019-01-21T21:58:44.381Z,94978.16
2019-01-21T22:01:13.925Z,94979.64
2019-01-21T22:03:44.111Z,94980.92
2019-01-21T22:06:13.745Z,94978.87
2019-01-21T22:08:43.262Z,94980.53
2019-01-21T22:11:12.816Z,94979.84
2019-01-21T22:13:42.467Z,94978.03
2019-01-21T22:16:12.627Z,94979.39
2019-01-21T22:18:42.150Z,94975.39
2019-01-21T22:21:11.659Z,94980.53
2019-01-21T22:23:41.262Z,94986.14
2019-01-21T22:26:10.871Z,94975.22
2019-01-21T22:28:41.262Z,94984.14
2019-01-21T22:31:10.940Z,94981.04
2019-01-21T22:33:40.466Z,94979.27
2019-01-21T22:36:09.989Z,94979.00
2019-01-21T22:38:39.490Z,94967.62
2019-01-21T22:41:09.552Z,94969.81
2019-01-21T22:43:39.133Z,94971.21
2019-01-21T22:46:08.623Z,94972.65
2019-01-21T22:48:38.144Z,94972.56
2019-01-21T22:51:07.637Z,94963.91
2019-01-21T22:53:37.895Z,94970.06
2019-01-21T22:56:07.458Z,94973.27
2019-01-21T22:58:36.984Z,94964.75
2019-01-21T23:01:38.407Z,94969.92
2019-01-21T23:04:08.106Z,94967.63
2019-01-21T23:06:37.658Z,94960.44
2019-01-21T23:09:08.480Z,94961.12
2019-01-21T23:11:38.092Z,94953.69
2019-01-21T23:14:07.873Z,94958.16
2019-01-21T23:16:37.457Z,94952.58
2019-01-21T23:19:07.067Z,94947.32
2019-01-21T23:21:36.587Z,94947.13
2019-01-21T23:24:06.210Z,94948.46
2019-01-21T23:26:35.902Z,94947.45
2019-01-21T23:29:05.762Z,94946.80
2019-01-21T23:31:35.301Z,94947.23
2019-01-21T23:34:04.889Z,94945.50
2019-01-21T23:36:34.434Z,94942.44
2019-01-21T23:39:06.142Z,94946.84
2019-01-21T23:41:35.645Z,94954.13
2019-01-21T23:44:05.570Z,94947.52
2019-01-21T23:46:35.065Z,94945.30
2019-01-21T23:49:04.815Z,94942.88
2019-01-21T23:51:34.590Z,94952.16
2019-01-21T23:54:04.421Z,94953.42
2019-01-21T23:56:33.981Z,94941.51
2019-01-21T23:59:04.049Z,94941.70
